createdAt,value
2023-05-08T00:02:21.367Z,95522.56
2023-05-08T00:04:49.405Z,95522.56
2023-05-08T00:07:17.405Z,95519.41
2023-05-08T00:09:46.132Z,95531.19
2023-05-08T00:12:15.617Z,95523.69
2023-05-08T00:14:43.550Z,95524.34
2023-05-08T00:17:11.555Z,95512.88
2023-05-08T00:19:39.502Z,95523.63
2023-05-08T00:22:07.472Z,95517.66
2023-05-08T00:24:35.393Z,95518.06
2023-05-08T00:27:03.531Z,95521.00
2023-05-08T00:29:32.811Z,95512.25
2023-05-08T00:32:01.271Z,95510.31
2023-05-08T00:34:29.273Z,95518.94
2023-05-08T00:36:57.901Z,95518.28
2023-05-08T00:39:25.985Z,95520.06
2023-05-08T00:41:54.032Z,95521.78
2023-05-08T00:44:22.057Z,95526.13
2023-05-08T00:46:52.012Z,95528.81
2023-05-08T00:49:20.196Z,95526.75
2023-05-08T00:51:50.921Z,95529.13
2023-05-08T00:54:19.080Z,95521.78
2023-05-08T00:56:47.717Z,95525.22
2023-05-08T00:59:17.599Z,95520.50
2023-05-08T01:01:47.795Z,95525.78
2023-05-08T01:04:20.850Z,95525.78
2023-05-08T01:06:48.848Z,95520.50
2023-05-08T01:09:16.804Z,95527.84
2023-05-08T01:11:52.534Z,95526.81
2023-05-08T01:14:22.569Z,95525.28
2023-05-08T01:16:58.672Z,95525.84
2023-05-08T01:19:53.998Z,95521.31
2023-05-08T01:22:39.983Z,95518.91
2023-05-08T01:25:45.556Z,95522.03
2023-05-08T01:28:33.597Z,95527.28
2023-05-08T01:31:13.027Z,95532.06
2023-05-08T01:33:49.264Z,95528.97
2023-05-08T01:36:24.883Z,95523.13
2023-05-08T01:39:02.916Z,95523.69
2023-05-08T01:41:33.134Z,95522.09
2023-05-08T01:44:12.620Z,95518.13
2023-05-08T01:46:40.697Z,95516.84
2023-05-08T01:49:12.545Z,95518.97
2023-05-08T01:51:44.803Z,95518.44
2023-05-08T01:54:17.398Z,95518.44
2023-05-08T01:56:48.124Z,95511.59
2023-05-08T01:59:20.008Z,95510.00
2023-05-08T02:01:49.263Z,95516.84
2023-05-08T02:04:20.110Z,95511.03
2023-05-08T02:06:48.443Z,95512.06
2023-05-08T02:09:17.781Z,95510.91
2023-05-08T02:11:47.173Z,95512.06
2023-05-08T02:14:22.253Z,95510.47
2023-05-08T02:16:52.451Z,95510.47
2023-05-08T02:19:24.549Z,95507.28
2023-05-08T02:21:53.212Z,95507.84
2023-05-08T02:24:22.383Z,95511.63
2023-05-08T02:26:51.553Z,95510.97
2023-05-08T02:29:20.829Z,95507.06
2023-05-08T02:31:50.032Z,95513.66
2023-05-08T02:34:19.671Z,95515.75
2023-05-08T02:36:50.487Z,95515.50
2023-05-08T02:39:21.521Z,95512.88
2023-05-08T02:41:50.133Z,95510.47
2023-05-08T02:44:18.187Z,95509.69
2023-05-08T02:46:50.559Z,95506.03
2023-05-08T02:49:28.707Z,95499.16
2023-05-08T02:52:05.509Z,95492.81
2023-05-08T02:54:39.318Z,95494.88
2023-05-08T02:57:18.551Z,95496.41
2023-05-08T02:59:53.011Z,95490.59
2023-05-08T03:02:30.030Z,95489.44
2023-05-08T03:05:04.404Z,95489.63
2023-05-08T03:07:39.494Z,95496.16
2023-05-08T03:10:13.166Z,95486.34
2023-05-08T03:12:45.710Z,95482.94
2023-05-08T03:15:19.567Z,95480.06
2023-05-08T03:17:50.097Z,95479.28
2023-05-08T03:20:20.749Z,95480.19
2023-05-08T03:22:54.100Z,95482.75
2023-05-08T03:25:22.920Z,95476.94
2023-05-08T03:27:53.127Z,95483.22
2023-05-08T03:30:22.311Z,95476.38
2023-05-08T03:33:03.156Z,95479.25
2023-05-08T03:35:32.746Z,95476.88
2023-05-08T03:38:02.498Z,95475.75
2023-05-08T03:40:30.957Z,95477.03
2023-05-08T03:43:01.668Z,95482.28
2023-05-08T03:45:30.394Z,95481.94
2023-05-08T03:48:00.957Z,95492.13
2023-05-08T03:50:29.498Z,95490.22
2023-05-08T03:52:59.166Z,95484.97
2023-05-08T03:55:28.599Z,95484.63
2023-05-08T03:58:02.195Z,95487.94
2023-05-08T04:00:51.594Z,95485.09
2023-05-08T04:03:25.702Z,95494.78
2023-05-08T04:06:02.045Z,95487.38
2023-05-08T04:08:33.507Z,95487.16
2023-05-08T04:11:13.345Z,95495.34
2023-05-08T04:13:50.036Z,95497.53
2023-05-08T04:16:22.820Z,95490.47
2023-05-08T04:18:55.513Z,95493.38
2023-05-08T04:21:26.535Z,95488.22
2023-05-08T04:23:58.175Z,95496.66
2023-05-08T04:26:30.735Z,95498.25
2023-05-08T04:29:00.906Z,95494.59
2023-05-08T04:31:30.175Z,95495.16
2023-05-08T04:33:58.473Z,95506.69
2023-05-08T04:36:29.541Z,95504.53
2023-05-08T04:38:59.301Z,95503.50
2023-05-08T04:41:29.309Z,95503.34
2023-05-08T04:43:57.840Z,95498.44
2023-05-08T04:46:26.026Z,95506.13
2023-05-08T04:48:54.052Z,95505.56
2023-05-08T04:51:21.976Z,95509.41
2023-05-08T04:53:49.981Z,95511.69
2023-05-08T04:56:19.370Z,95505.03
2023-05-08T04:58:48.788Z,95504.66
2023-05-08T05:01:17.119Z,95508.41
2023-05-08T05:03:45.203Z,95507.44
2023-05-08T05:06:13.108Z,95517.94
2023-05-08T05:08:41.182Z,95517.47
2023-05-08T05:11:09.216Z,95522.25
2023-05-08T05:13:37.174Z,95525.91
2023-05-08T05:16:07.690Z,95526.38
2023-05-08T05:18:35.722Z,95522.25
2023-05-08T05:21:03.732Z,95523.94
2023-05-08T05:23:31.785Z,95526.09
2023-05-08T05:26:00.920Z,95532.47
2023-05-08T05:28:29.525Z,95537.72
2023-05-08T05:30:57.747Z,95537.72
2023-05-08T05:33:27.246Z,95534.06
2023-05-08T05:35:55.434Z,95528.31
2023-05-08T05:38:23.972Z,95532.66
2023-05-08T05:40:52.042Z,95530.88
2023-05-08T05:43:20.032Z,95538.53
2023-05-08T05:45:48.034Z,95527.53
2023-05-08T05:48:16.188Z,95533.91
2023-05-08T05:50:48.267Z,95529.44
2023-05-08T05:53:16.340Z,95536.53
2023-05-08T05:55:44.363Z,95533.91
2023-05-08T05:58:12.349Z,95543.31
2023-05-08T06:00:40.344Z,95544.91
2023-05-08T06:03:08.421Z,95542.81
2023-05-08T06:05:37.581Z,95546.00
2023-05-08T06:08:07.272Z,95551.28
2023-05-08T06:10:35.490Z,95550.78
2023-05-08T06:13:03.524Z,95548.25
2023-05-08T06:15:31.657Z,95545.69
2023-05-08T06:17:59.714Z,95549.19
2023-05-08T06:20:27.821Z,95545.03
2023-05-08T06:22:55.886Z,95548.47
2023-05-08T06:25:25.470Z,95549.06
2023-05-08T06:27:53.409Z,95543.78
2023-05-08T06:30:21.501Z,95543.78
2023-05-08T06:32:49.809Z,95546.97
2023-05-08T06:35:19.457Z,95546.50
2023-05-08T06:37:47.761Z,95549.69
2023-05-08T06:40:15.926Z,95548.41
2023-05-08T06:42:45.195Z,95548.16
2023-05-08T06:45:13.747Z,95547.13
2023-05-08T06:47:41.913Z,95541.84
2023-05-08T06:50:10.769Z,95538.41
2023-05-08T06:52:38.714Z,95542.66
2023-05-08T06:55:07.425Z,95538.53
2023-05-08T06:57:35.541Z,95537.22
2023-05-08T07:00:06.141Z,95544.44
2023-05-08T07:02:34.103Z,95541.06
2023-05-08T07:05:03.285Z,95550.13
2023-05-08T07:07:31.603Z,95546.78
2023-05-08T07:09:59.725Z,95550.75
2023-05-08T07:12:27.652Z,95550.28
2023-05-08T07:14:56.637Z,95547.69
2023-05-08T07:17:27.581Z,95537.22
2023-05-08T07:19:55.540Z,95537.84
2023-05-08T07:22:23.499Z,95535.03
2023-05-08T07:24:51.485Z,95544.78
2023-05-08T07:27:20.234Z,95540.03
2023-05-08T07:29:48.172Z,95539.50
2023-05-08T07:32:16.405Z,95540.53
2023-05-08T07:34:45.706Z,95530.56
2023-05-08T07:37:14.017Z,95526.88
2023-05-08T07:39:41.955Z,95520.03
2023-05-08T07:42:09.978Z,95523.19
2023-05-08T07:44:47.210Z,95530.06
2023-05-08T07:47:22.210Z,95525.44
2023-05-08T07:49:51.543Z,95532.97
2023-05-08T07:52:19.483Z,95522.06
2023-05-08T07:54:47.412Z,95537.41
2023-05-08T07:57:15.321Z,95524.72
2023-05-08T07:59:43.208Z,95542.03
2023-05-08T08:02:11.286Z,95543.13
2023-05-08T08:04:39.582Z,95524.88
2023-05-08T08:07:08.995Z,95533.91
2023-05-08T08:09:36.967Z,95524.97
2023-05-08T08:12:04.981Z,95518.09
2023-05-08T08:14:33.133Z,95521.06
2023-05-08T08:17:01.492Z,95521.06
2023-05-08T08:19:29.571Z,95520.28
2023-05-08T08:21:57.499Z,95516.69
2023-05-08T08:24:26.792Z,95515.66
2023-05-08T08:26:54.753Z,95512.66
2023-05-08T08:29:22.681Z,95514.88
2023-05-08T08:31:50.631Z,95523.88
2023-05-08T08:34:18.521Z,95515.00
2023-05-08T08:36:46.433Z,95518.19
2023-05-08T08:39:15.439Z,95518.81
2023-05-08T08:41:45.598Z,95513.06
2023-05-08T08:44:13.537Z,95508.44
2023-05-08T08:46:50.710Z,95513.72
2023-05-08T08:49:20.183Z,95518.69
2023-05-08T08:51:53.792Z,95511.53
2023-05-08T08:54:24.471Z,95499.91
2023-05-08T08:56:54.767Z,95508.84
2023-05-08T08:59:26.164Z,95514.63
2023-05-08T09:01:57.926Z,95507.50
2023-05-08T09:04:27.498Z,95509.59
2023-05-08T09:06:55.705Z,95515.06
2023-05-08T09:09:24.299Z,95504.97
2023-05-08T09:11:54.466Z,95511.28
2023-05-08T09:14:24.507Z,95515.97
2023-05-08T09:16:52.766Z,95508.56
2023-05-08T09:19:22.708Z,95516.47
2023-05-08T09:21:52.977Z,95517.91
2023-05-08T09:24:20.874Z,95513.53
2023-05-08T09:26:48.751Z,95518.13
2023-05-08T09:29:20.018Z,95522.41
2023-05-08T09:31:50.167Z,95525.16
2023-05-08T09:34:27.138Z,95525.19
2023-05-08T09:36:55.643Z,95530.53
2023-05-08T09:39:25.591Z,95530.56
2023-05-08T09:42:00.784Z,95534.78
2023-05-08T09:44:30.495Z,95531.63
2023-05-08T09:47:11.629Z,95536.44
2023-05-08T09:49:40.783Z,95545.91
2023-05-08T09:52:09.009Z,95542.22
2023-05-08T09:54:36.995Z,95543.25
2023-05-08T09:57:13.464Z,95541.28
2023-05-08T09:59:42.825Z,95548.81
2023-05-08T10:02:16.368Z,95535.59
2023-05-08T10:04:44.451Z,95532.44
2023-05-08T10:07:12.393Z,95537.72
2023-05-08T10:09:50.297Z,95535.59
2023-05-08T10:12:19.692Z,95541.16
2023-05-08T10:14:49.008Z,95537.72
2023-05-08T10:17:22.596Z,95531.88
2023-05-08T10:19:56.128Z,95538.69
2023-05-08T10:22:26.369Z,95532.84
2023-05-08T10:24:57.795Z,95534.94
2023-05-08T10:27:35.960Z,95538.09
2023-05-08T10:30:06.105Z,95534.66
2023-05-08T10:32:40.668Z,95531.00
2023-05-08T10:35:12.112Z,95537.16
2023-05-08T10:37:42.302Z,95534.03
2023-05-08T10:40:12.157Z,95539.28
2023-05-08T10:42:41.091Z,95527.66
2023-05-08T10:45:11.684Z,95520.78
2023-05-08T10:47:49.790Z,95523.94
2023-05-08T10:50:29.966Z,95534.53
2023-05-08T10:53:08.316Z,95522.88
2023-05-08T10:55:38.602Z,95523.16
2023-05-08T10:58:10.389Z,95531.91
2023-05-08T11:01:15.074Z,95531.38
2023-05-08T11:03:45.750Z,95529.78
2023-05-08T11:06:14.676Z,95515.75
2023-05-08T11:08:54.615Z,95516.56
2023-05-08T11:11:32.053Z,95515.50
2023-05-08T11:14:11.632Z,95510.75
2023-05-08T11:17:09.178Z,95505.97
2023-05-08T11:19:38.609Z,95500.16
2023-05-08T11:22:24.935Z,95501.22
2023-05-08T11:25:01.078Z,95500.13
2023-05-08T11:27:37.526Z,95500.63
2023-05-08T11:30:23.303Z,95492.66
2023-05-08T11:32:59.717Z,95497.97
2023-05-08T11:35:46.689Z,95493.75
2023-05-08T11:38:23.585Z,95494.03
2023-05-08T11:40:59.527Z,95492.19
2023-05-08T11:43:55.690Z,95494.06
2023-05-08T11:46:23.708Z,95487.97
2023-05-08T11:48:59.898Z,95493.28
2023-05-08T11:51:32.680Z,95500.41
2023-05-08T11:54:01.159Z,95494.84
2023-05-08T11:56:29.341Z,95487.97
2023-05-08T11:59:04.658Z,95483.22
2023-05-08T12:01:33.240Z,95493.81
2023-05-08T12:04:03.616Z,95487.97
2023-05-08T12:06:32.667Z,95491.16
2023-05-08T12:09:01.208Z,95489.03
2023-05-08T12:11:29.168Z,95487.44
2023-05-08T12:13:57.083Z,95484.28
2023-05-08T12:16:25.914Z,95483.75
2023-05-08T12:18:54.600Z,95484.78
2023-05-08T12:21:24.050Z,95484.50
2023-05-08T12:23:51.998Z,95483.16
2023-05-08T12:26:19.941Z,95492.72
2023-05-08T12:28:48.563Z,95490.59
2023-05-08T12:31:16.785Z,95493.75
2023-05-08T12:33:44.919Z,95496.69
2023-05-08T12:36:12.931Z,95505.69
2023-05-08T12:38:42.263Z,95498.53
2023-05-08T12:41:11.227Z,95503.84
2023-05-08T12:43:39.176Z,95499.88
2023-05-08T12:46:07.349Z,95496.41
2023-05-08T12:48:35.326Z,95499.59
2023-05-08T12:51:04.965Z,95495.91
2023-05-08T12:53:33.950Z,95492.72
2023-05-08T12:56:05.425Z,95500.16
2023-05-08T12:58:35.776Z,95492.22
2023-05-08T13:01:13.194Z,95491.16
2023-05-08T13:03:42.364Z,95493.25
2023-05-08T13:06:21.844Z,95491.16
2023-05-08T13:08:55.497Z,95492.72
2023-05-08T13:11:33.059Z,95487.16
2023-05-08T13:14:01.190Z,95489.53
2023-05-08T13:16:29.594Z,95487.44
2023-05-08T13:18:57.608Z,95489.56
2023-05-08T13:21:27.537Z,95478.47
2023-05-08T13:23:56.796Z,95473.69
2023-05-08T13:26:25.689Z,95475.81
2023-05-08T13:28:56.576Z,95477.41
2023-05-08T13:31:24.842Z,95468.38
2023-05-08T13:33:52.819Z,95467.34
2023-05-08T13:36:21.534Z,95468.91
2023-05-08T13:38:51.377Z,95465.19
2023-05-08T13:41:19.287Z,95463.03
2023-05-08T13:43:48.198Z,95465.16
2023-05-08T13:46:17.616Z,95454.59
2023-05-08T13:48:45.592Z,95457.75
2023-05-08T13:51:13.512Z,95451.41
2023-05-08T13:53:41.423Z,95448.50
2023-05-08T13:56:09.389Z,95455.63
2023-05-08T13:58:37.365Z,95438.16
2023-05-08T14:01:17.665Z,95441.91
2023-05-08T14:03:51.873Z,95437.94
2023-05-08T14:06:20.537Z,95435.03
2023-05-08T14:08:51.510Z,95431.63
2023-05-08T14:11:20.871Z,95436.09
2023-05-08T14:13:48.819Z,95427.66
2023-05-08T14:16:16.938Z,95422.38
2023-05-08T14:18:44.985Z,95422.38
2023-05-08T14:21:14.261Z,95421.31
2023-05-08T14:23:42.786Z,95415.97
2023-05-08T14:26:10.715Z,95412.56
2023-05-08T14:28:38.646Z,95417.59
2023-05-08T14:31:06.873Z,95421.84
2023-05-08T14:33:34.862Z,95413.84
2023-05-08T14:36:02.811Z,95413.25
2023-05-08T14:38:32.521Z,95413.19
2023-05-08T14:41:04.287Z,95418.03
2023-05-08T14:43:32.946Z,95406.38
2023-05-08T14:46:01.788Z,95408.97
2023-05-08T14:48:29.721Z,95400.97
2023-05-08T14:50:57.686Z,95398.81
2023-05-08T14:53:25.937Z,95410.94
2023-05-08T14:55:55.595Z,95416.72
2023-05-08T14:58:23.915Z,95418.91
2023-05-08T15:00:51.846Z,95418.63
2023-05-08T15:03:20.076Z,95418.41
2023-05-08T15:05:48.418Z,95418.94
2023-05-08T15:08:16.573Z,95407.88
2023-05-08T15:10:44.703Z,95416.34
2023-05-08T15:13:14.026Z,95416.34
2023-05-08T15:15:42.208Z,95420.06
2023-05-08T15:18:10.193Z,95417.44
2023-05-08T15:20:38.113Z,95415.31
2023-05-08T15:23:06.025Z,95419.56
2023-05-08T15:25:33.990Z,95419.03
2023-05-08T15:28:01.940Z,95425.66
2023-05-08T15:30:31.209Z,95427.28
2023-05-08T15:32:59.167Z,95423.84
2023-05-08T15:35:27.280Z,95429.13
2023-05-08T15:37:55.213Z,95427.56
2023-05-08T15:40:23.149Z,95425.19
2023-05-08T15:42:51.086Z,95419.34
2023-05-08T15:45:19.034Z,95430.72
2023-05-08T15:47:48.350Z,95420.69
2023-05-08T15:50:16.384Z,95430.75
2023-05-08T15:52:44.313Z,95428.09
2023-05-08T15:55:12.898Z,95430.72
2023-05-08T15:57:40.925Z,95433.34
2023-05-08T16:00:10.286Z,95428.53
2023-05-08T16:02:38.275Z,95435.44
2023-05-08T16:05:08.303Z,95438.63
2023-05-08T16:07:36.245Z,95441.00
2023-05-08T16:10:05.500Z,95439.66
2023-05-08T16:12:35.213Z,95434.31
2023-05-08T16:15:03.194Z,95434.59
2023-05-08T16:17:31.128Z,95432.16
2023-05-08T16:20:00.662Z,95436.91
2023-05-08T16:22:29.944Z,95447.47
2023-05-08T16:24:58.125Z,95453.34
2023-05-08T16:27:25.979Z,95458.38
2023-05-08T16:29:53.904Z,95441.72
2023-05-08T16:32:21.846Z,95448.91
2023-05-08T16:34:49.819Z,95443.38
2023-05-08T16:37:17.756Z,95459.03
2023-05-08T16:39:47.047Z,95460.88
2023-05-08T16:42:15.000Z,95455.63
2023-05-08T16:44:42.904Z,95457.22
2023-05-08T16:47:11.066Z,95458.78
2023-05-08T16:49:39.110Z,95457.63
2023-05-08T16:52:07.120Z,95450.06
2023-05-08T16:54:35.058Z,95451.09
2023-05-08T16:57:04.521Z,95459.56
2023-05-08T16:59:32.701Z,95462.72
2023-05-08T17:02:00.606Z,95467.22
2023-05-08T17:04:30.728Z,95461.13
2023-05-08T17:07:00.003Z,95469.06
2023-05-08T17:09:28.598Z,95467.00
2023-05-08T17:11:58.195Z,95466.91
2023-05-08T17:14:27.565Z,95464.97
2023-05-08T17:16:55.510Z,95468.97
2023-05-08T17:19:23.492Z,95466.53
2023-05-08T17:21:51.494Z,95466.63
2023-05-08T17:24:19.663Z,95465.50
2023-05-08T17:26:47.660Z,95458.94
2023-05-08T17:29:15.905Z,95458.78
2023-05-08T17:31:45.260Z,95463.09
2023-05-08T17:34:13.254Z,95468.50
2023-05-08T17:36:41.235Z,95468.59
2023-05-08T17:39:09.389Z,95469.16
2023-05-08T17:41:37.341Z,95468.69
2023-05-08T17:44:05.656Z,95464.47
2023-05-08T17:46:33.595Z,95463.44
2023-05-08T17:49:02.878Z,95465.03
2023-05-08T17:51:31.106Z,95470.84
2023-05-08T17:53:59.100Z,95476.44
2023-05-08T17:56:27.136Z,95473.56
2023-05-08T17:58:55.608Z,95483.66
2023-05-08T18:01:24.865Z,95477.84
2023-05-08T18:03:54.194Z,95485.56
2023-05-08T18:06:23.478Z,95486.34
2023-05-08T18:08:51.494Z,95485.84
2023-05-08T18:11:20.440Z,95482.66
2023-05-08T18:13:48.613Z,95485.84
2023-05-08T18:16:18.486Z,95486.38
2023-05-08T18:18:46.506Z,95483.75
2023-05-08T18:21:14.772Z,95493.28
2023-05-08T18:23:44.240Z,95488.53
2023-05-08T18:26:15.053Z,95494.59
2023-05-08T18:28:43.516Z,95492.72
2023-05-08T18:31:11.796Z,95494.84
2023-05-08T18:33:39.841Z,95486.66
2023-05-08T18:36:08.054Z,95485.06
2023-05-08T18:38:36.485Z,95489.03
2023-05-08T18:41:06.411Z,95484.28
2023-05-08T18:43:34.614Z,95495.91
2023-05-08T18:46:09.094Z,95495.91
2023-05-08T18:48:37.235Z,95499.06
2023-05-08T18:51:05.704Z,95490.06
2023-05-08T18:53:34.194Z,95483.19
2023-05-08T18:56:03.477Z,95476.84
2023-05-08T18:58:32.829Z,95477.91
2023-05-08T19:01:01.352Z,95478.44
2023-05-08T19:03:29.506Z,95480.53
2023-05-08T19:05:57.514Z,95480.00
2023-05-08T19:08:25.678Z,95487.38
2023-05-08T19:10:54.012Z,95483.66
2023-05-08T19:13:22.058Z,95485.50
2023-05-08T19:15:51.511Z,95487.34
2023-05-08T19:18:19.454Z,95490.50
2023-05-08T19:20:47.404Z,95488.91
2023-05-08T19:23:17.340Z,95490.47
2023-05-08T19:25:45.460Z,95493.59
2023-05-08T19:28:13.439Z,95494.63
2023-05-08T19:30:41.392Z,95498.31
2023-05-08T19:33:10.745Z,95498.25
2023-05-08T19:35:38.664Z,95511.47
2023-05-08T19:38:06.588Z,95507.75
2023-05-08T19:40:44.510Z,95514.88
2023-05-08T19:43:20.316Z,95517.75
2023-05-08T19:45:48.395Z,95514.34
2023-05-08T19:48:19.638Z,95516.69
2023-05-08T19:50:47.638Z,95517.69
2023-05-08T19:53:15.776Z,95519.78
2023-05-08T19:55:43.794Z,95522.91
2023-05-08T19:58:11.812Z,95518.13
2023-05-08T20:00:39.756Z,95517.63
2023-05-08T20:03:07.780Z,95516.59
2023-05-08T20:05:37.194Z,95518.72
2023-05-08T20:08:05.398Z,95515.00
2023-05-08T20:10:33.416Z,95515.00
2023-05-08T20:13:01.451Z,95516.09
2023-05-08T20:15:29.512Z,95515.28
2023-05-08T20:17:59.213Z,95508.41
2023-05-08T20:20:29.408Z,95503.94
2023-05-08T20:22:59.031Z,95499.16
2023-05-08T20:25:27.085Z,95493.88
2023-05-08T20:27:55.031Z,95496.00
2023-05-08T20:30:23.835Z,95499.13
2023-05-08T20:32:52.103Z,95501.47
2023-05-08T20:35:20.275Z,95496.50
2023-05-08T20:37:49.426Z,95507.59
2023-05-08T20:40:18.972Z,95509.97
2023-05-08T20:42:46.946Z,95511.28
2023-05-08T20:45:15.029Z,95507.00
2023-05-08T20:47:43.010Z,95501.22
2023-05-08T20:50:11.715Z,95501.47
2023-05-08T20:52:41.856Z,95491.66
2023-05-08T20:55:11.112Z,95500.53
2023-05-08T20:57:40.683Z,95499.50
2023-05-08T21:00:09.923Z,95495.81
2023-05-08T21:02:40.126Z,95499.72
2023-05-08T21:05:09.141Z,95503.69
2023-05-08T21:07:37.270Z,95508.38
2023-05-08T21:10:05.833Z,95504.91
2023-05-08T21:12:33.780Z,95505.44
2023-05-08T21:15:03.397Z,95501.94
2023-05-08T21:17:31.417Z,95510.91
2023-05-08T21:19:59.382Z,95511.91
2023-05-08T21:22:27.302Z,95509.25
2023-05-08T21:24:55.226Z,95506.84
2023-05-08T21:27:23.202Z,95500.28
2023-05-08T21:29:51.349Z,95492.91
2023-05-08T21:32:20.728Z,95495.81
2023-05-08T21:34:48.794Z,95502.13
2023-05-08T21:37:16.685Z,95499.19
2023-05-08T21:39:44.688Z,95500.09
2023-05-08T21:42:12.730Z,95506.84
2023-05-08T21:44:40.660Z,95511.88
2023-05-08T21:47:08.636Z,95511.75
2023-05-08T21:49:37.983Z,95507.13
2023-05-08T21:52:06.113Z,95501.97
2023-05-08T21:54:34.037Z,95504.69
2023-05-08T21:57:01.971Z,95497.34
2023-05-08T21:59:29.935Z,95498.38
2023-05-08T22:01:57.911Z,95484.16
2023-05-08T22:04:25.948Z,95475.19
2023-05-08T22:06:55.270Z,95482.06
2023-05-08T22:09:23.237Z,95481.63
2023-05-08T22:11:52.461Z,95479.81
2023-05-08T22:14:20.491Z,95479.56
2023-05-08T22:16:48.440Z,95470.06
2023-05-08T22:19:16.536Z,95474.78
2023-05-08T22:21:44.456Z,95471.91
2023-05-08T22:24:15.054Z,95469.53
2023-05-08T22:26:43.180Z,95472.16
2023-05-08T22:29:11.144Z,95466.25
2023-05-08T22:31:39.219Z,95470.44
2023-05-08T22:34:07.162Z,95473.31
2023-05-08T22:36:35.230Z,95465.66
2023-05-08T22:39:03.824Z,95466.41
2023-05-08T22:41:33.231Z,95463.50
2023-05-08T22:44:01.632Z,95464.78
2023-05-08T22:46:29.936Z,95456.31
2023-05-08T22:48:57.936Z,95460.78
2023-05-08T22:51:26.032Z,95453.38
2023-05-08T22:53:54.264Z,95455.78
2023-05-08T22:56:22.212Z,95457.59
2023-05-08T22:58:51.505Z,95449.16
2023-05-08T23:01:19.576Z,95450.16
2023-05-08T23:03:47.691Z,95446.50
2023-05-08T23:06:15.662Z,95443.31
2023-05-08T23:08:43.555Z,95445.41
2023-05-08T23:11:11.530Z,95442.72
2023-05-08T23:13:39.440Z,95433.78
2023-05-08T23:16:08.908Z,95439.50
2023-05-08T23:18:36.946Z,95434.19
2023-05-08T23:21:08.412Z,95437.84
2023-05-08T23:23:36.966Z,95430.94
2023-05-08T23:26:05.874Z,95424.31
2023-05-08T23:28:34.380Z,95432.94
2023-05-08T23:31:02.513Z,95425.28
2023-05-08T23:33:31.875Z,95444.47
2023-05-08T23:36:00.354Z,95440.31
2023-05-08T23:38:28.318Z,95436.13
2023-05-08T23:40:56.263Z,95436.13
2023-05-08T23:43:24.197Z,95428.97
2023-05-08T23:45:52.180Z,95433.44
2023-05-08T23:48:20.093Z,95433.44
2023-05-08T23:50:49.356Z,95430.56
2023-05-08T23:53:17.309Z,95419.25
2023-05-08T23:55:45.284Z,95439.00
2023-05-08T23:58:13.198Z,95439.81
